sensor_id;sensor_type;location;lat;lon;timestamp;temperature;humidity
76120;DHT22;64852;48.092;-1.640;2023-05-10T00:00:50;12.60;99.90
76120;DHT22;64852;48.092;-1.640;2023-05-10T00:03:16;12.60;99.90
76120;DHT22;64852;48.092;-1.640;2023-05-10T00:05:42;12.40;99.90
76120;DHT22;64852;48.092;-1.640;2023-05-10T00:08:07;12.50;99.90
76120;DHT22;64852;48.092;-1.640;2023-05-10T00:10:33;12.60;99.90
76120;DHT22;64852;48.092;-1.640;2023-05-10T00:12:58;12.40;99.90
76120;DHT22;64852;48.092;-1.640;2023-05-10T00:15:24;12.40;99.90
76120;DHT22;64852;48.092;-1.640;2023-05-10T00:17:49;12.50;99.90
76120;DHT22;64852;48.092;-1.640;2023-05-10T00:20:15;12.50;99.90
76120;DHT22;64852;48.092;-1.640;2023-05-10T00:22:40;12.40;99.90
76120;DHT22;64852;48.092;-1.640;2023-05-10T00:25:06;12.40;99.90
76120;DHT22;64852;48.092;-1.640;2023-05-10T00:27:32;12.40;99.90
76120;DHT22;64852;48.092;-1.640;2023-05-10T00:29:57;12.40;99.90
76120;DHT22;64852;48.092;-1.640;2023-05-10T00:32:23;12.30;99.90
76120;DHT22;64852;48.092;-1.640;2023-05-10T00:34:48;12.30;99.90
76120;DHT22;64852;48.092;-1.640;2023-05-10T00:37:14;12.30;99.90
76120;DHT22;64852;48.092;-1.640;2023-05-10T00:39:39;12.30;99.90
76120;DHT22;64852;48.092;-1.640;2023-05-10T00:42:05;12.30;99.90
76120;DHT22;64852;48.092;-1.640;2023-05-10T00:44:30;12.30;99.90
76120;DHT22;64852;48.092;-1.640;2023-05-10T00:46:56;12.30;99.90
76120;DHT22;64852;48.092;-1.640;2023-05-10T00:49:22;12.40;99.90
76120;DHT22;64852;48.092;-1.640;2023-05-10T00:51:48;12.20;99.90
76120;DHT22;64852;48.092;-1.640;2023-05-10T00:54:14;12.20;99.90
76120;DHT22;64852;48.092;-1.640;2023-05-10T00:56:40;12.20;99.90
76120;DHT22;64852;48.092;-1.640;2023-05-10T00:59:06;12.20;99.90
76120;DHT22;64852;48.092;-1.640;2023-05-10T01:01:31;12.20;99.90
76120;DHT22;64852;48.092;-1.640;2023-05-10T01:03:57;12.10;99.90
76120;DHT22;64852;48.092;-1.640;2023-05-10T01:06:23;12.20;99.90
76120;DHT22;64852;48.092;-1.640;2023-05-10T01:08:48;12.20;99.90
76120;DHT22;64852;48.092;-1.640;2023-05-10T01:11:14;12.20;99.90
76120;DHT22;64852;48.092;-1.640;2023-05-10T01:13:41;12.10;99.90
76120;DHT22;64852;48.092;-1.640;2023-05-10T01:16:07;12.10;99.90
76120;DHT22;64852;48.092;-1.640;2023-05-10T01:18:33;12.20;99.90
76120;DHT22;64852;48.092;-1.640;2023-05-10T01:26:21;12.20;99.90
76120;DHT22;64852;48.092;-1.640;2023-05-10T01:31:38;12.20;99.90
76120;DHT22;64852;48.092;-1.640;2023-05-10T01:34:07;12.10;99.90
76120;DHT22;64852;48.092;-1.640;2023-05-10T01:37:08;12.10;99.90
76120;DHT22;64852;48.092;-1.640;2023-05-10T01:41:56;12.10;99.90
76120;DHT22;64852;48.092;-1.640;2023-05-10T01:44:35;12.10;99.90
76120;DHT22;64852;48.092;-1.640;2023-05-10T01:47:07;12.10;99.90
76120;DHT22;64852;48.092;-1.640;2023-05-10T01:49:39;12.00;99.90
76120;DHT22;64852;48.092;-1.640;2023-05-10T01:52:08;12.00;99.90
76120;DHT22;64852;48.092;-1.640;2023-05-10T01:54:34;11.90;99.90
76120;DHT22;64852;48.092;-1.640;2023-05-10T01:57:02;11.90;99.90
76120;DHT22;64852;48.092;-1.640;2023-05-10T01:59:29;12.00;99.90
76120;DHT22;64852;48.092;-1.640;2023-05-10T02:01:57;11.90;99.90
76120;DHT22;64852;48.092;-1.640;2023-05-10T02:04:23;11.90;99.90
76120;DHT22;64852;48.092;-1.640;2023-05-10T02:06:50;11.90;99.90
76120;DHT22;64852;48.092;-1.640;2023-05-10T02:09:16;11.90;99.90
76120;DHT22;64852;48.092;-1.640;2023-05-10T02:11:43;11.80;99.90
76120;DHT22;64852;48.092;-1.640;2023-05-10T02:14:09;11.80;99.90
76120;DHT22;64852;48.092;-1.640;2023-05-10T02:16:35;11.80;99.90
76120;DHT22;64852;48.092;-1.640;2023-05-10T02:19:02;11.80;99.90
76120;DHT22;64852;48.092;-1.640;2023-05-10T02:21:28;11.80;99.90
76120;DHT22;64852;48.092;-1.640;2023-05-10T02:23:54;11.80;99.90
76120;DHT22;64852;48.092;-1.640;2023-05-10T02:26:20;11.80;99.90
76120;DHT22;64852;48.092;-1.640;2023-05-10T02:28:47;11.80;99.90
76120;DHT22;64852;48.092;-1.640;2023-05-10T02:31:13;11.70;99.90
76120;DHT22;64852;48.092;-1.640;2023-05-10T02:33:39;11.80;99.90
76120;DHT22;64852;48.092;-1.640;2023-05-10T02:36:06;11.80;99.90
76120;DHT22;64852;48.092;-1.640;2023-05-10T02:38:32;11.80;99.90
76120;DHT22;64852;48.092;-1.640;2023-05-10T02:40:59;11.80;99.90
76120;DHT22;64852;48.092;-1.640;2023-05-10T02:43:25;11.70;99.90
76120;DHT22;64852;48.092;-1.640;2023-05-10T02:45:51;11.70;99.90
76120;DHT22;64852;48.092;-1.640;2023-05-10T02:48:16;11.80;99.90
76120;DHT22;64852;48.092;-1.640;2023-05-10T02:50:43;11.80;99.90
76120;DHT22;64852;48.092;-1.640;2023-05-10T02:53:10;11.80;99.90
76120;DHT22;64852;48.092;-1.640;2023-05-10T02:55:36;11.80;99.90
76120;DHT22;64852;48.092;-1.640;2023-05-10T02:58:03;11.70;99.90
76120;DHT22;64852;48.092;-1.640;2023-05-10T03:00:29;11.70;99.90
76120;DHT22;64852;48.092;-1.640;2023-05-10T03:02:54;11.70;99.90
76120;DHT22;64852;48.092;-1.640;2023-05-10T03:05:20;11.70;99.90
76120;DHT22;64852;48.092;-1.640;2023-05-10T03:07:46;11.80;99.90
76120;DHT22;64852;48.092;-1.640;2023-05-10T03:10:11;11.70;99.90
76120;DHT22;64852;48.092;-1.640;2023-05-10T03:12:52;11.60;99.90
76120;DHT22;64852;48.092;-1.640;2023-05-10T03:18:01;11.50;99.90
76120;DHT22;64852;48.092;-1.640;2023-05-10T03:20:41;11.70;99.90
76120;DHT22;64852;48.092;-1.640;2023-05-10T03:23:12;11.60;99.90
76120;DHT22;64852;48.092;-1.640;2023-05-10T03:25:39;11.60;99.90
76120;DHT22;64852;48.092;-1.640;2023-05-10T03:28:05;11.60;99.90
76120;DHT22;64852;48.092;-1.640;2023-05-10T03:30:31;11.60;99.90
76120;DHT22;64852;48.092;-1.640;2023-05-10T03:32:56;11.60;99.90
76120;DHT22;64852;48.092;-1.640;2023-05-10T03:35:22;11.40;99.90
76120;DHT22;64852;48.092;-1.640;2023-05-10T03:37:48;11.50;99.90
76120;DHT22;64852;48.092;-1.640;2023-05-10T03:40:14;11.50;99.90
76120;DHT22;64852;48.092;-1.640;2023-05-10T03:42:40;11.50;99.90
76120;DHT22;64852;48.092;-1.640;2023-05-10T03:45:05;11.50;99.90
76120;DHT22;64852;48.092;-1.640;2023-05-10T03:47:31;11.30;99.90
76120;DHT22;64852;48.092;-1.640;2023-05-10T03:49:56;11.40;99.90
76120;DHT22;64852;48.092;-1.640;2023-05-10T03:52:22;11.50;99.90
76120;DHT22;64852;48.092;-1.640;2023-05-10T03:54:47;11.50;99.90
76120;DHT22;64852;48.092;-1.640;2023-05-10T03:57:13;11.50;99.90
76120;DHT22;64852;48.092;-1.640;2023-05-10T03:59:38;11.50;99.90
76120;DHT22;64852;48.092;-1.640;2023-05-10T04:02:04;11.60;99.90
76120;DHT22;64852;48.092;-1.640;2023-05-10T04:04:29;11.50;99.90
76120;DHT22;64852;48.092;-1.640;2023-05-10T04:06:55;11.50;99.90
76120;DHT22;64852;48.092;-1.640;2023-05-10T04:09:20;11.60;99.90
76120;DHT22;64852;48.092;-1.640;2023-05-10T04:11:46;11.50;99.90
76120;DHT22;64852;48.092;-1.640;2023-05-10T04:14:11;11.50;99.90
76120;DHT22;64852;48.092;-1.640;2023-05-10T04:16:37;11.60;99.90
76120;DHT22;64852;48.092;-1.640;2023-05-10T04:19:02;11.70;99.90
76120;DHT22;64852;48.092;-1.640;2023-05-10T04:21:28;11.50;99.90
76120;DHT22;64852;48.092;-1.640;2023-05-10T04:23:54;11.60;99.90
76120;DHT22;64852;48.092;-1.640;2023-05-10T04:26:20;11.60;99.90
76120;DHT22;64852;48.092;-1.640;2023-05-10T04:28:45;11.70;99.90
76120;DHT22;64852;48.092;-1.640;2023-05-10T04:31:11;11.70;99.90
76120;DHT22;64852;48.092;-1.640;2023-05-10T04:33:36;11.70;99.90
76120;DHT22;64852;48.092;-1.640;2023-05-10T04:36:02;11.60;99.90
76120;DHT22;64852;48.092;-1.640;2023-05-10T04:38:28;11.60;99.90
76120;DHT22;64852;48.092;-1.640;2023-05-10T04:40:54;11.60;99.90
76120;DHT22;64852;48.092;-1.640;2023-05-10T04:43:19;11.60;99.90
76120;DHT22;64852;48.092;-1.640;2023-05-10T04:45:45;11.60;99.90
76120;DHT22;64852;48.092;-1.640;2023-05-10T04:48:11;11.50;99.90
76120;DHT22;64852;48.092;-1.640;2023-05-10T04:50:36;11.60;99.90
76120;DHT22;64852;48.092;-1.640;2023-05-10T04:53:02;11.50;99.90
76120;DHT22;64852;48.092;-1.640;2023-05-10T04:55:27;11.60;99.90
76120;DHT22;64852;48.092;-1.640;2023-05-10T04:57:53;11.60;99.90
76120;DHT22;64852;48.092;-1.640;2023-05-10T05:00:20;11.60;99.90
76120;DHT22;64852;48.092;-1.640;2023-05-10T05:02:46;11.50;99.90
76120;DHT22;64852;48.092;-1.640;2023-05-10T05:05:12;11.60;99.90
76120;DHT22;64852;48.092;-1.640;2023-05-10T05:07:37;11.50;99.90
76120;DHT22;64852;48.092;-1.640;2023-05-10T05:10:06;11.50;99.90
76120;DHT22;64852;48.092;-1.640;2023-05-10T05:12:32;11.60;99.90
76120;DHT22;64852;48.092;-1.640;2023-05-10T05:14:58;11.60;99.90
76120;DHT22;64852;48.092;-1.640;2023-05-10T05:17:23;11.60;99.90
76120;DHT22;64852;48.092;-1.640;2023-05-10T05:19:49;11.60;99.90
76120;DHT22;64852;48.092;-1.640;2023-05-10T05:22:14;11.50;99.90
76120;DHT22;64852;48.092;-1.640;2023-05-10T05:24:40;11.70;99.90
76120;DHT22;64852;48.092;-1.640;2023-05-10T05:27:05;11.80;99.90
76120;DHT22;64852;48.092;-1.640;2023-05-10T05:29:31;11.80;99.90
76120;DHT22;64852;48.092;-1.640;2023-05-10T05:31:57;11.90;99.90
76120;DHT22;64852;48.092;-1.640;2023-05-10T05:34:22;11.90;99.90
76120;DHT22;64852;48.092;-1.640;2023-05-10T05:36:48;12.00;99.90
76120;DHT22;64852;48.092;-1.640;2023-05-10T05:39:13;12.00;99.90
76120;DHT22;64852;48.092;-1.640;2023-05-10T05:41:39;12.00;99.90
76120;DHT22;64852;48.092;-1.640;2023-05-10T05:44:04;12.10;99.90
76120;DHT22;64852;48.092;-1.640;2023-05-10T05:46:30;12.10;99.90
76120;DHT22;64852;48.092;-1.640;2023-05-10T05:48:55;12.10;99.90
76120;DHT22;64852;48.092;-1.640;2023-05-10T05:51:21;12.20;99.90
76120;DHT22;64852;48.092;-1.640;2023-05-10T05:53:46;12.10;99.90
76120;DHT22;64852;48.092;-1.640;2023-05-10T05:56:12;12.20;99.90
76120;DHT22;64852;48.092;-1.640;2023-05-10T05:58:37;12.30;99.90
76120;DHT22;64852;48.092;-1.640;2023-05-10T06:01:03;12.30;99.90
76120;DHT22;64852;48.092;-1.640;2023-05-10T06:03:28;12.30;99.90
76120;DHT22;64852;48.092;-1.640;2023-05-10T06:05:54;12.30;99.90
76120;DHT22;64852;48.092;-1.640;2023-05-10T06:08:19;12.40;99.90
76120;DHT22;64852;48.092;-1.640;2023-05-10T06:10:45;12.40;99.90
76120;DHT22;64852;48.092;-1.640;2023-05-10T06:13:11;12.40;99.90
76120;DHT22;64852;48.092;-1.640;2023-05-10T06:15:36;12.50;99.90
76120;DHT22;64852;48.092;-1.640;2023-05-10T06:18:02;12.50;99.90
76120;DHT22;64852;48.092;-1.640;2023-05-10T06:20:28;12.60;99.90
76120;DHT22;64852;48.092;-1.640;2023-05-10T06:22:53;12.60;99.90
76120;DHT22;64852;48.092;-1.640;2023-05-10T06:25:19;12.70;99.90
76120;DHT22;64852;48.092;-1.640;2023-05-10T06:27:44;12.70;99.90
76120;DHT22;64852;48.092;-1.640;2023-05-10T06:30:10;12.70;99.90
76120;DHT22;64852;48.092;-1.640;2023-05-10T06:32:38;12.80;99.90
76120;DHT22;64852;48.092;-1.640;2023-05-10T06:35:04;12.80;99.90
76120;DHT22;64852;48.092;-1.640;2023-05-10T06:37:29;12.70;99.90
76120;DHT22;64852;48.092;-1.640;2023-05-10T06:39:55;12.80;99.90
76120;DHT22;64852;48.092;-1.640;2023-05-10T06:42:20;12.80;99.90
76120;DHT22;64852;48.092;-1.640;2023-05-10T06:44:46;12.80;99.90
76120;DHT22;64852;48.092;-1.640;2023-05-10T06:47:11;12.80;99.90
76120;DHT22;64852;48.092;-1.640;2023-05-10T06:49:37;13.00;99.90
76120;DHT22;64852;48.092;-1.640;2023-05-10T06:52:02;13.00;99.90
76120;DHT22;64852;48.092;-1.640;2023-05-10T06:54:28;13.00;99.90
76120;DHT22;64852;48.092;-1.640;2023-05-10T06:56:53;13.10;99.90
76120;DHT22;64852;48.092;-1.640;2023-05-10T06:59:19;13.10;99.90
76120;DHT22;64852;48.092;-1.640;2023-05-10T07:01:45;13.10;99.90
76120;DHT22;64852;48.092;-1.640;2023-05-10T07:04:10;13.20;99.90
76120;DHT22;64852;48.092;-1.640;2023-05-10T07:06:36;13.20;99.90
76120;DHT22;64852;48.092;-1.640;2023-05-10T07:09:01;13.30;99.90
76120;DHT22;64852;48.092;-1.640;2023-05-10T07:11:27;13.30;99.90
76120;DHT22;64852;48.092;-1.640;2023-05-10T07:13:53;13.30;99.90
76120;DHT22;64852;48.092;-1.640;2023-05-10T07:16:18;13.50;99.90
76120;DHT22;64852;48.092;-1.640;2023-05-10T07:18:44;13.60;99.90
76120;DHT22;64852;48.092;-1.640;2023-05-10T07:21:09;13.70;99.90
76120;DHT22;64852;48.092;-1.640;2023-05-10T07:23:35;13.70;99.90
76120;DHT22;64852;48.092;-1.640;2023-05-10T07:26:01;13.70;99.90
76120;DHT22;64852;48.092;-1.640;2023-05-10T07:28:27;13.70;99.90
76120;DHT22;64852;48.092;-1.640;2023-05-10T07:30:53;13.90;99.90
76120;DHT22;64852;48.092;-1.640;2023-05-10T07:33:18;13.90;99.90
76120;DHT22;64852;48.092;-1.640;2023-05-10T07:35:44;13.90;99.90
76120;DHT22;64852;48.092;-1.640;2023-05-10T07:38:09;14.00;99.90
76120;DHT22;64852;48.092;-1.640;2023-05-10T07:40:36;14.10;99.90
76120;DHT22;64852;48.092;-1.640;2023-05-10T07:43:01;14.20;99.90
76120;DHT22;64852;48.092;-1.640;2023-05-10T07:45:27;14.10;99.90
76120;DHT22;64852;48.092;-1.640;2023-05-10T07:47:53;14.20;99.90
76120;DHT22;64852;48.092;-1.640;2023-05-10T07:50:18;14.20;99.90
76120;DHT22;64852;48.092;-1.640;2023-05-10T07:52:44;14.20;99.90
76120;DHT22;64852;48.092;-1.640;2023-05-10T07:55:09;14.10;99.90
76120;DHT22;64852;48.092;-1.640;2023-05-10T07:57:35;14.10;99.90
76120;DHT22;64852;48.092;-1.640;2023-05-10T08:00:00;14.00;99.90
76120;DHT22;64852;48.092;-1.640;2023-05-10T08:02:26;14.10;99.90
76120;DHT22;64852;48.092;-1.640;2023-05-10T08:04:51;14.00;99.90
76120;DHT22;64852;48.092;-1.640;2023-05-10T08:07:18;14.10;99.90
76120;DHT22;64852;48.092;-1.640;2023-05-10T08:09:43;14.20;99.90
76120;DHT22;64852;48.092;-1.640;2023-05-10T08:12:09;14.10;99.90
76120;DHT22;64852;48.092;-1.640;2023-05-10T08:14:34;14.20;99.90
76120;DHT22;64852;48.092;-1.640;2023-05-10T08:17:02;14.20;99.90
76120;DHT22;64852;48.092;-1.640;2023-05-10T08:19:27;14.30;99.90
76120;DHT22;64852;48.092;-1.640;2023-05-10T08:21:53;14.30;99.90
76120;DHT22;64852;48.092;-1.640;2023-05-10T08:24:20;14.40;99.90
76120;DHT22;64852;48.092;-1.640;2023-05-10T08:26:46;14.30;99.90
76120;DHT22;64852;48.092;-1.640;2023-05-10T08:29:13;14.40;99.90
76120;DHT22;64852;48.092;-1.640;2023-05-10T08:31:38;14.40;99.90
76120;DHT22;64852;48.092;-1.640;2023-05-10T08:34:04;14.60;99.90
76120;DHT22;64852;48.092;-1.640;2023-05-10T08:36:29;14.60;99.90
76120;DHT22;64852;48.092;-1.640;2023-05-10T08:38:55;14.70;99.90
76120;DHT22;64852;48.092;-1.640;2023-05-10T08:41:21;14.40;99.90
76120;DHT22;64852;48.092;-1.640;2023-05-10T08:43:49;14.30;99.90
76120;DHT22;64852;48.092;-1.640;2023-05-10T08:46:16;14.40;99.90
76120;DHT22;64852;48.092;-1.640;2023-05-10T08:48:45;14.40;99.90
76120;DHT22;64852;48.092;-1.640;2023-05-10T08:51:13;14.50;99.90
76120;DHT22;64852;48.092;-1.640;2023-05-10T08:53:38;14.60;99.90
76120;DHT22;64852;48.092;-1.640;2023-05-10T08:56:04;14.80;99.90
76120;DHT22;64852;48.092;-1.640;2023-05-10T08:58:30;14.80;99.90
76120;DHT22;64852;48.092;-1.640;2023-05-10T09:00:56;15.10;99.90
76120;DHT22;64852;48.092;-1.640;2023-05-10T09:03:22;15.20;99.90
76120;DHT22;64852;48.092;-1.640;2023-05-10T09:05:48;15.50;99.90
76120;DHT22;64852;48.092;-1.640;2023-05-10T09:08:14;15.30;99.90
76120;DHT22;64852;48.092;-1.640;2023-05-10T09:10:42;15.30;99.90
76120;DHT22;64852;48.092;-1.640;2023-05-10T09:13:09;15.30;99.90
76120;DHT22;64852;48.092;-1.640;2023-05-10T09:15:35;15.30;99.90
76120;DHT22;64852;48.092;-1.640;2023-05-10T09:18:00;15.40;99.90
76120;DHT22;64852;48.092;-1.640;2023-05-10T09:20:27;15.50;99.90
76120;DHT22;64852;48.092;-1.640;2023-05-10T09:22:53;15.60;99.90
76120;DHT22;64852;48.092;-1.640;2023-05-10T09:25:18;15.60;99.90
76120;DHT22;64852;48.092;-1.640;2023-05-10T09:27:45;15.70;99.90
76120;DHT22;64852;48.092;-1.640;2023-05-10T09:30:15;15.60;99.90
76120;DHT22;64852;48.092;-1.640;2023-05-10T09:32:41;15.60;99.90
76120;DHT22;64852;48.092;-1.640;2023-05-10T09:35:08;15.50;99.90
76120;DHT22;64852;48.092;-1.640;2023-05-10T09:37:33;15.40;99.90
76120;DHT22;64852;48.092;-1.640;2023-05-10T09:39:59;15.40;99.90
76120;DHT22;64852;48.092;-1.640;2023-05-10T09:42:25;15.50;99.90
76120;DHT22;64852;48.092;-1.640;2023-05-10T09:44:50;15.40;99.90
76120;DHT22;64852;48.092;-1.640;2023-05-10T09:47:19;15.40;99.90
76120;DHT22;64852;48.092;-1.640;2023-05-10T09:49:48;15.40;99.90
76120;DHT22;64852;48.092;-1.640;2023-05-10T09:52:14;15.30;99.90
76120;DHT22;64852;48.092;-1.640;2023-05-10T09:54:42;15.30;99.90
76120;DHT22;64852;48.092;-1.640;2023-05-10T09:57:19;15.60;99.90
76120;DHT22;64852;48.092;-1.640;2023-05-10T09:59:45;15.80;99.90
76120;DHT22;64852;48.092;-1.640;2023-05-10T10:02:11;16.10;99.90
76120;DHT22;64852;48.092;-1.640;2023-05-10T10:04:41;16.30;99.90
76120;DHT22;64852;48.092;-1.640;2023-05-10T10:07:07;16.70;99.90
76120;DHT22;64852;48.092;-1.640;2023-05-10T10:09:33;16.40;99.90
76120;DHT22;64852;48.092;-1.640;2023-05-10T10:12:00;16.30;99.90
76120;DHT22;64852;48.092;-1.640;2023-05-10T10:14:26;16.30;99.90
76120;DHT22;64852;48.092;-1.640;2023-05-10T10:16:52;16.40;99.90
76120;DHT22;64852;48.092;-1.640;2023-05-10T10:19:19;16.50;99.90
76120;DHT22;64852;48.092;-1.640;2023-05-10T10:21:49;16.60;99.90
76120;DHT22;64852;48.092;-1.640;2023-05-10T10:24:15;16.60;99.90
76120;DHT22;64852;48.092;-1.640;2023-05-10T10:26:42;16.70;99.90
76120;DHT22;64852;48.092;-1.640;2023-05-10T10:29:31;17.00;99.90
76120;DHT22;64852;48.092;-1.640;2023-05-10T10:34:29;16.90;99.90
76120;DHT22;64852;48.092;-1.640;2023-05-10T10:36:55;16.80;99.90
76120;DHT22;64852;48.092;-1.640;2023-05-10T10:39:22;16.60;99.90
76120;DHT22;64852;48.092;-1.640;2023-05-10T10:49:43;16.00;99.90
76120;DHT22;64852;48.092;-1.640;2023-05-10T10:52:13;15.90;99.90
76120;DHT22;64852;48.092;-1.640;2023-05-10T10:54:39;15.90;99.90
76120;DHT22;64852;48.092;-1.640;2023-05-10T10:57:11;15.90;99.90
76120;DHT22;64852;48.092;-1.640;2023-05-10T10:59:41;16.00;99.90
76120;DHT22;64852;48.092;-1.640;2023-05-10T11:02:08;16.10;99.90
76120;DHT22;64852;48.092;-1.640;2023-05-10T11:04:43;16.30;99.90
76120;DHT22;64852;48.092;-1.640;2023-05-10T11:07:18;16.30;99.90
76120;DHT22;64852;48.092;-1.640;2023-05-10T11:09:44;16.30;99.90
76120;DHT22;64852;48.092;-1.640;2023-05-10T11:12:10;16.40;99.90
76120;DHT22;64852;48.092;-1.640;2023-05-10T11:14:36;16.70;99.90
76120;DHT22;64852;48.092;-1.640;2023-05-10T11:17:01;16.80;99.90
76120;DHT22;64852;48.092;-1.640;2023-05-10T11:19:28;17.10;99.90
76120;DHT22;64852;48.092;-1.640;2023-05-10T11:24:29;17.30;99.90
76120;DHT22;64852;48.092;-1.640;2023-05-10T11:26:54;15.30;99.90
76120;DHT22;64852;48.092;-1.640;2023-05-10T11:29:20;17.00;99.90
76120;DHT22;64852;48.092;-1.640;2023-05-10T11:31:46;16.70;99.90
76120;DHT22;64852;48.092;-1.640;2023-05-10T11:34:13;16.60;99.90
76120;DHT22;64852;48.092;-1.640;2023-05-10T11:36:50;16.40;99.90
76120;DHT22;64852;48.092;-1.640;2023-05-10T11:39:16;16.30;99.90
76120;DHT22;64852;48.092;-1.640;2023-05-10T11:41:41;16.30;99.90
76120;DHT22;64852;48.092;-1.640;2023-05-10T11:44:07;16.20;99.90
76120;DHT22;64852;48.092;-1.640;2023-05-10T11:46:34;16.10;99.90
76120;DHT22;64852;48.092;-1.640;2023-05-10T11:49:01;16.00;99.90
76120;DHT22;64852;48.092;-1.640;2023-05-10T11:51:29;15.40;99.90
76120;DHT22;64852;48.092;-1.640;2023-05-10T11:53:55;16.10;99.90
76120;DHT22;64852;48.092;-1.640;2023-05-10T11:56:21;16.30;99.90
76120;DHT22;64852;48.092;-1.640;2023-05-10T11:58:52;16.80;99.90
76120;DHT22;64852;48.092;-1.640;2023-05-10T12:01:18;17.30;99.90
76120;DHT22;64852;48.092;-1.640;2023-05-10T12:03:43;17.90;99.90
76120;DHT22;64852;48.092;-1.640;2023-05-10T12:06:09;18.20;99.90
76120;DHT22;64852;48.092;-1.640;2023-05-10T12:08:35;18.40;99.90
76120;DHT22;64852;48.092;-1.640;2023-05-10T12:11:04;18.20;99.90
76120;DHT22;64852;48.092;-1.640;2023-05-10T12:13:30;18.00;99.90
76120;DHT22;64852;48.092;-1.640;2023-05-10T12:15:59;17.80;99.90
76120;DHT22;64852;48.092;-1.640;2023-05-10T12:18:24;17.50;99.90
76120;DHT22;64852;48.092;-1.640;2023-05-10T12:20:53;17.20;99.90
76120;DHT22;64852;48.092;-1.640;2023-05-10T12:23:19;17.10;99.90
76120;DHT22;64852;48.092;-1.640;2023-05-10T12:25:45;17.00;99.90
76120;DHT22;64852;48.092;-1.640;2023-05-10T12:28:10;16.80;99.90
76120;DHT22;64852;48.092;-1.640;2023-05-10T12:30:36;16.70;99.90
76120;DHT22;64852;48.092;-1.640;2023-05-10T12:33:06;16.60;99.90
76120;DHT22;64852;48.092;-1.640;2023-05-10T12:35:32;16.50;99.90
76120;DHT22;64852;48.092;-1.640;2023-05-10T12:37:58;16.40;99.90
76120;DHT22;64852;48.092;-1.640;2023-05-10T12:40:24;16.30;99.90
76120;DHT22;64852;48.092;-1.640;2023-05-10T12:42:49;16.10;99.90
76120;DHT22;64852;48.092;-1.640;2023-05-10T12:45:17;15.90;99.90
76120;DHT22;64852;48.092;-1.640;2023-05-10T12:47:42;15.80;99.90
76120;DHT22;64852;48.092;-1.640;2023-05-10T12:50:08;15.80;99.90
76120;DHT22;64852;48.092;-1.640;2023-05-10T12:52:33;15.70;99.90
76120;DHT22;64852;48.092;-1.640;2023-05-10T12:54:59;15.60;99.90
76120;DHT22;64852;48.092;-1.640;2023-05-10T12:57:25;15.60;99.90
76120;DHT22;64852;48.092;-1.640;2023-05-10T12:59:51;15.70;99.90
76120;DHT22;64852;48.092;-1.640;2023-05-10T13:02:16;15.80;99.90
76120;DHT22;64852;48.092;-1.640;2023-05-10T13:04:46;15.90;99.90
76120;DHT22;64852;48.092;-1.640;2023-05-10T13:07:12;16.10;99.90
76120;DHT22;64852;48.092;-1.640;2023-05-10T13:09:37;16.30;99.90
76120;DHT22;64852;48.092;-1.640;2023-05-10T13:12:03;16.70;99.90
76120;DHT22;64852;48.092;-1.640;2023-05-10T13:14:29;17.10;99.90
76120;DHT22;64852;48.092;-1.640;2023-05-10T13:16:54;15.60;99.90
76120;DHT22;64852;48.092;-1.640;2023-05-10T13:19:20;17.50;99.90
76120;DHT22;64852;48.092;-1.640;2023-05-10T13:21:46;17.60;99.90
76120;DHT22;64852;48.092;-1.640;2023-05-10T13:24:12;17.60;99.90
76120;DHT22;64852;48.092;-1.640;2023-05-10T13:26:39;17.50;99.90
76120;DHT22;64852;48.092;-1.640;2023-05-10T13:29:04;17.40;99.90
76120;DHT22;64852;48.092;-1.640;2023-05-10T13:31:30;17.50;99.90
76120;DHT22;64852;48.092;-1.640;2023-05-10T13:33:55;17.30;99.90
76120;DHT22;64852;48.092;-1.640;2023-05-10T13:36:21;17.90;99.90
76120;DHT22;64852;48.092;-1.640;2023-05-10T13:38:48;17.10;99.90
76120;DHT22;64852;48.092;-1.640;2023-05-10T13:41:13;17.70;99.90
76120;DHT22;64852;48.092;-1.640;2023-05-10T13:43:39;17.80;99.90
76120;DHT22;64852;48.092;-1.640;2023-05-10T13:46:04;18.00;99.90
76120;DHT22;64852;48.092;-1.640;2023-05-10T13:48:30;18.10;99.90
76120;DHT22;64852;48.092;-1.640;2023-05-10T13:50:56;17.90;99.90
76120;DHT22;64852;48.092;-1.640;2023-05-10T13:53:21;17.60;99.90
76120;DHT22;64852;48.092;-1.640;2023-05-10T13:55:47;17.30;99.90
76120;DHT22;64852;48.092;-1.640;2023-05-10T13:58:12;17.00;99.90
76120;DHT22;64852;48.092;-1.640;2023-05-10T14:00:38;16.70;99.90
76120;DHT22;64852;48.092;-1.640;2023-05-10T14:03:03;16.50;99.90
76120;DHT22;64852;48.092;-1.640;2023-05-10T14:05:30;16.30;99.90
76120;DHT22;64852;48.092;-1.640;2023-05-10T14:07:56;16.00;99.90
76120;DHT22;64852;48.092;-1.640;2023-05-10T14:10:21;16.00;99.90
76120;DHT22;64852;48.092;-1.640;2023-05-10T14:12:47;15.80;99.90
76120;DHT22;64852;48.092;-1.640;2023-05-10T14:15:13;15.70;99.90
76120;DHT22;64852;48.092;-1.640;2023-05-10T14:17:38;16.10;99.90
76120;DHT22;64852;48.092;-1.640;2023-05-10T14:20:04;16.10;99.90
76120;DHT22;64852;48.092;-1.640;2023-05-10T14:22:29;16.20;99.90
76120;DHT22;64852;48.092;-1.640;2023-05-10T14:24:55;16.40;99.90
76120;DHT22;64852;48.092;-1.640;2023-05-10T14:27:20;16.60;99.90
76120;DHT22;64852;48.092;-1.640;2023-05-10T14:29:47;16.80;99.90
76120;DHT22;64852;48.092;-1.640;2023-05-10T14:32:12;17.00;99.90
76120;DHT22;64852;48.092;-1.640;2023-05-10T14:34:38;17.60;99.90
76120;DHT22;64852;48.092;-1.640;2023-05-10T14:37:03;18.40;99.90
76120;DHT22;64852;48.092;-1.640;2023-05-10T14:39:29;19.00;99.90
76120;DHT22;64852;48.092;-1.640;2023-05-10T14:41:55;19.20;99.90
76120;DHT22;64852;48.092;-1.640;2023-05-10T14:44:20;19.20;99.90
76120;DHT22;64852;48.092;-1.640;2023-05-10T14:46:46;17.40;99.90
76120;DHT22;64852;48.092;-1.640;2023-05-10T14:49:13;18.70;99.90
76120;DHT22;64852;48.092;-1.640;2023-05-10T14:51:38;18.50;99.90
76120;DHT22;64852;48.092;-1.640;2023-05-10T14:54:04;18.40;99.90
76120;DHT22;64852;48.092;-1.640;2023-05-10T14:56:29;18.20;99.90
76120;DHT22;64852;48.092;-1.640;2023-05-10T14:58:55;18.10;99.90
76120;DHT22;64852;48.092;-1.640;2023-05-10T15:01:20;17.90;99.90
76120;DHT22;64852;48.092;-1.640;2023-05-10T15:03:46;17.80;99.90
76120;DHT22;64852;48.092;-1.640;2023-05-10T15:06:13;17.70;99.90
76120;DHT22;64852;48.092;-1.640;2023-05-10T15:08:39;17.60;99.90
76120;DHT22;64852;48.092;-1.640;2023-05-10T15:11:04;17.60;99.90
76120;DHT22;64852;48.092;-1.640;2023-05-10T15:13:30;17.90;99.90
76120;DHT22;64852;48.092;-1.640;2023-05-10T15:15:55;18.90;99.90
76120;DHT22;64852;48.092;-1.640;2023-05-10T15:18:21;19.70;99.90
76120;DHT22;64852;48.092;-1.640;2023-05-10T15:20:46;20.40;99.90
76120;DHT22;64852;48.092;-1.640;2023-05-10T15:23:12;21.00;99.90
76120;DHT22;64852;48.092;-1.640;2023-05-10T15:25:37;21.10;99.90
76120;DHT22;64852;48.092;-1.640;2023-05-10T15:28:03;21.00;99.90
76120;DHT22;64852;48.092;-1.640;2023-05-10T15:30:29;20.60;99.90
76120;DHT22;64852;48.092;-1.640;2023-05-10T15:32:55;20.30;99.90
76120;DHT22;64852;48.092;-1.640;2023-05-10T15:35:20;19.90;99.90